createdAt,value
2018-03-18T00:02:13.601Z,20.30
2018-03-18T00:04:41.327Z,20.30
2018-03-18T00:07:09.121Z,20.30
2018-03-18T00:09:36.848Z,20.20
2018-03-18T00:12:08.415Z,20.30
2018-03-18T00:14:36.177Z,20.20
2018-03-18T00:17:04.001Z,20.30
2018-03-18T00:19:31.871Z,20.30
2018-03-18T00:21:59.680Z,20.30
2018-03-18T00:24:27.384Z,20.30
2018-03-18T00:26:55.119Z,20.10
2018-03-18T00:29:22.866Z,20.00
2018-03-18T00:31:51.355Z,20.00
2018-03-18T00:34:19.062Z,20.00
2018-03-18T00:36:46.881Z,20.00
2018-03-18T00:39:15.444Z,19.90
2018-03-18T00:41:43.235Z,19.90
2018-03-18T00:44:10.969Z,19.90
2018-03-18T00:46:38.731Z,20.00
2018-03-18T00:49:06.454Z,20.00
2018-03-18T00:51:46.142Z,20.00
2018-03-18T00:54:13.933Z,20.00
2018-03-18T00:56:41.693Z,19.90
2018-03-18T00:59:09.450Z,20.00
2018-03-18T01:01:37.217Z,20.00
2018-03-18T01:04:04.986Z,20.00
2018-03-18T01:06:32.798Z,20.00
2018-03-18T01:09:00.518Z,19.90
2018-03-18T01:11:28.258Z,19.90
2018-03-18T01:13:55.970Z,19.80
2018-03-18T01:16:24.506Z,19.70
2018-03-18T01:18:52.258Z,19.70
2018-03-18T01:21:20.011Z,19.80
2018-03-18T01:23:47.751Z,19.70
2018-03-18T01:26:15.605Z,19.80
2018-03-18T01:28:43.361Z,19.90
2018-03-18T01:31:11.161Z,20.10
2018-03-18T01:33:38.941Z,19.90
2018-03-18T01:36:06.742Z,19.70
2018-03-18T01:38:34.534Z,19.60
2018-03-18T01:41:02.284Z,20.00
2018-03-18T01:43:30.109Z,20.00
2018-03-18T01:45:57.908Z,19.90
2018-03-18T01:48:25.669Z,19.80
2018-03-18T01:50:53.487Z,19.90
2018-03-18T01:53:22.084Z,20.10
2018-03-18T01:55:50.578Z,20.30
2018-03-18T01:58:18.357Z,20.30
2018-03-18T02:00:46.145Z,20.30
2018-03-18T02:03:13.959Z,20.50
2018-03-18T02:05:41.680Z,20.70
2018-03-18T02:08:09.475Z,20.80
2018-03-18T02:10:37.267Z,20.80
2018-03-18T02:13:05.080Z,20.70
2018-03-18T02:15:32.805Z,20.60
2018-03-18T02:18:00.565Z,20.50
2018-03-18T02:20:28.428Z,20.60
2018-03-18T02:22:56.930Z,20.30
2018-03-18T02:25:24.637Z,20.30
2018-03-18T02:27:52.438Z,20.40
2018-03-18T02:30:20.197Z,20.30
2018-03-18T02:32:47.992Z,20.30
2018-03-18T02:35:15.716Z,20.50
2018-03-18T02:37:43.454Z,20.60
2018-03-18T02:40:11.265Z,20.50
2018-03-18T02:42:38.971Z,20.30
2018-03-18T02:45:06.801Z,20.10
2018-03-18T02:47:34.601Z,19.90
2018-03-18T02:50:02.413Z,19.90
2018-03-18T02:52:30.128Z,20.00
2018-03-18T02:54:57.876Z,20.00
2018-03-18T02:57:25.690Z,20.20
2018-03-18T02:59:53.456Z,20.10
2018-03-18T03:02:21.177Z,19.90
2018-03-18T03:04:49.505Z,19.90
2018-03-18T03:07:17.213Z,20.00
2018-03-18T03:09:44.921Z,20.20
2018-03-18T03:12:12.659Z,20.10
2018-03-18T03:14:40.471Z,20.00
2018-03-18T03:17:08.241Z,19.80
2018-03-18T03:19:35.994Z,19.90
2018-03-18T03:22:03.875Z,20.00
2018-03-18T03:24:31.655Z,20.00
2018-03-18T03:26:59.410Z,20.00
2018-03-18T03:29:27.244Z,20.00
2018-03-18T03:31:55.086Z,20.00
2018-03-18T03:34:22.876Z,20.00
2018-03-18T03:36:50.618Z,19.80
2018-03-18T03:39:18.335Z,19.70
2018-03-18T03:41:46.077Z,19.40
2018-03-18T03:44:13.902Z,19.10
2018-03-18T03:46:41.707Z,19.10
2018-03-18T03:49:09.459Z,19.30
2018-03-18T03:51:37.276Z,19.30
2018-03-18T03:54:05.074Z,19.10
2018-03-18T03:56:32.837Z,19.00
2018-03-18T03:59:00.563Z,19.10
2018-03-18T04:01:28.340Z,19.00
2018-03-18T04:03:56.048Z,18.80
2018-03-18T04:06:23.785Z,18.60
2018-03-18T04:08:52.307Z,18.40
2018-03-18T04:11:20.028Z,18.30
2018-03-18T04:13:47.840Z,18.40
2018-03-18T04:16:15.555Z,18.40
2018-03-18T04:18:43.323Z,18.40
2018-03-18T04:21:11.073Z,18.30
2018-03-18T04:23:38.884Z,18.20
2018-03-18T04:26:06.621Z,18.10
2018-03-18T04:28:34.395Z,17.90
2018-03-18T04:31:02.181Z,17.90
2018-03-18T04:33:29.913Z,17.90
2018-03-18T04:35:57.650Z,18.00
2018-03-18T04:38:25.480Z,18.10
2018-03-18T04:40:53.285Z,18.10
2018-03-18T04:43:21.776Z,18.00
2018-03-18T04:45:49.580Z,18.00
2018-03-18T04:48:17.334Z,18.20
2018-03-18T04:50:45.066Z,18.30
2018-03-18T04:53:12.789Z,18.30
2018-03-18T04:55:40.553Z,18.30
2018-03-18T04:58:08.331Z,18.20
2018-03-18T05:00:36.062Z,18.30
2018-03-18T05:03:03.868Z,18.20
2018-03-18T05:05:31.640Z,18.30
2018-03-18T05:07:59.377Z,18.40
2018-03-18T05:10:27.123Z,18.40
2018-03-18T05:12:54.903Z,18.40
2018-03-18T05:15:22.622Z,18.40
2018-03-18T05:17:51.203Z,18.50
2018-03-18T05:20:18.960Z,18.50
2018-03-18T05:22:46.728Z,18.40
2018-03-18T05:25:14.491Z,18.50
2018-03-18T05:27:42.291Z,18.50
2018-03-18T05:30:10.016Z,18.60
2018-03-18T05:32:37.878Z,18.70
2018-03-18T05:35:05.693Z,18.70
2018-03-18T05:37:34.271Z,18.70
2018-03-18T05:40:02.060Z,18.70
2018-03-18T05:42:29.825Z,18.80
2018-03-18T05:44:57.634Z,18.80
2018-03-18T05:47:25.398Z,18.90
2018-03-18T05:49:53.252Z,19.00
2018-03-18T05:52:20.998Z,19.00
2018-03-18T05:54:48.780Z,19.10
2018-03-18T05:57:16.575Z,19.20
2018-03-18T05:59:44.384Z,19.20
2018-03-18T06:02:12.115Z,19.30
2018-03-18T06:04:39.946Z,19.30
2018-03-18T06:07:07.729Z,19.40
2018-03-18T06:09:35.501Z,19.50
2018-03-18T06:12:03.249Z,19.50
2018-03-18T06:17:03.932Z,20.10
2018-03-18T06:19:31.709Z,20.10
2018-03-18T06:21:59.434Z,20.10
2018-03-18T06:24:27.229Z,20.30
2018-03-18T06:26:55.048Z,20.20
2018-03-18T06:29:22.773Z,20.00
2018-03-18T06:31:50.580Z,19.90
2018-03-18T06:34:18.384Z,19.80
2018-03-18T06:36:46.099Z,19.70
2018-03-18T06:39:13.867Z,19.70
2018-03-18T06:41:41.676Z,19.80
2018-03-18T06:44:09.446Z,20.20
2018-03-18T06:46:37.188Z,20.30
2018-03-18T06:49:04.992Z,20.10
2018-03-18T06:51:32.797Z,20.60
2018-03-18T06:54:00.694Z,20.70
2018-03-18T06:56:28.535Z,20.40
2018-03-18T06:58:56.305Z,20.00
2018-03-18T07:01:24.876Z,20.00
2018-03-18T07:03:52.621Z,20.00
2018-03-18T07:06:23.716Z,20.20
2018-03-18T07:08:52.360Z,20.30
2018-03-18T07:11:20.147Z,20.30
2018-03-18T07:13:47.921Z,20.20
2018-03-18T07:16:15.766Z,20.00
2018-03-18T07:18:43.590Z,19.90
2018-03-18T07:21:11.466Z,20.10
2018-03-18T07:23:39.368Z,20.10
2018-03-18T07:26:07.196Z,19.90
2018-03-18T07:28:35.044Z,19.70
2018-03-18T07:31:03.532Z,19.70
2018-03-18T07:33:31.308Z,19.60
2018-03-18T07:35:59.021Z,19.60
2018-03-18T07:38:26.874Z,19.70
2018-03-18T07:40:54.658Z,19.80
2018-03-18T07:43:22.424Z,19.80
2018-03-18T07:45:50.856Z,19.80
2018-03-18T07:48:18.896Z,19.90
2018-03-18T07:50:47.464Z,20.00
2018-03-18T07:53:15.258Z,19.90
2018-03-18T07:55:43.023Z,20.00
2018-03-18T07:58:10.826Z,20.10
2018-03-18T08:00:38.607Z,20.20
2018-03-18T08:03:07.351Z,20.20
2018-03-18T08:05:35.222Z,20.10
2018-03-18T08:08:03.065Z,20.10
2018-03-18T08:10:30.852Z,20.10
2018-03-18T08:12:58.649Z,20.10
2018-03-18T08:15:26.452Z,20.20
2018-03-18T08:17:54.289Z,20.60
2018-03-18T08:20:22.071Z,20.50
2018-03-18T08:22:49.838Z,20.40
2018-03-18T08:25:17.576Z,20.20
2018-03-18T08:27:45.366Z,20.20
2018-03-18T08:30:13.080Z,20.20
2018-03-18T08:32:46.770Z,20.50
2018-03-18T08:35:15.337Z,20.30
2018-03-18T08:37:43.132Z,20.20
2018-03-18T08:40:10.921Z,19.90
2018-03-18T08:42:39.920Z,19.60
2018-03-18T08:45:09.309Z,19.80
2018-03-18T08:47:37.028Z,19.80
2018-03-18T08:50:04.863Z,20.20
2018-03-18T08:52:33.501Z,20.20
2018-03-18T08:55:01.410Z,20.20
2018-03-18T08:57:31.028Z,20.20
2018-03-18T08:59:58.804Z,20.20
2018-03-18T09:02:26.613Z,20.00
2018-03-18T09:04:59.584Z,19.70
2018-03-18T09:07:27.367Z,19.60
2018-03-18T09:09:55.187Z,19.60
2018-03-18T09:12:23.676Z,19.70
2018-03-18T09:14:53.934Z,19.70
2018-03-18T09:17:23.349Z,19.80
2018-03-18T09:19:51.131Z,19.60
2018-03-18T09:22:18.860Z,19.60
2018-03-18T09:24:46.670Z,19.80
2018-03-18T09:27:14.431Z,19.80
2018-03-18T09:29:42.244Z,19.80
2018-03-18T09:32:10.012Z,19.80
2018-03-18T09:34:38.462Z,19.80
2018-03-18T09:37:06.268Z,19.80
2018-03-18T09:39:34.073Z,20.00
2018-03-18T09:42:01.893Z,20.30
2018-03-18T09:44:29.854Z,20.40
2018-03-18T09:46:57.651Z,20.40
2018-03-18T09:49:25.382Z,20.20
2018-03-18T09:51:53.222Z,20.20
2018-03-18T09:54:21.034Z,20.10
2018-03-18T09:56:49.797Z,20.00
2018-03-18T09:59:20.159Z,20.00
2018-03-18T10:01:47.975Z,20.00
2018-03-18T10:04:19.928Z,20.00
2018-03-18T10:06:47.801Z,20.00
2018-03-18T10:09:15.596Z,20.20
2018-03-18T10:11:43.349Z,20.50
2018-03-18T10:14:11.132Z,20.60
2018-03-18T10:16:38.946Z,20.80
2018-03-18T10:19:06.746Z,21.00
2018-03-18T10:21:34.527Z,20.90
2018-03-18T10:24:02.367Z,20.20
2018-03-18T10:26:30.146Z,19.60
2018-03-18T10:29:01.171Z,19.40
2018-03-18T10:31:29.779Z,19.50
2018-03-18T10:33:57.520Z,19.50
2018-03-18T10:36:25.309Z,19.80
2018-03-18T10:38:53.121Z,20.10
2018-03-18T10:41:20.893Z,20.40
2018-03-18T10:43:48.696Z,20.70
2018-03-18T10:46:17.739Z,20.60
2018-03-18T10:48:45.814Z,20.90
2018-03-18T10:51:13.563Z,21.20
2018-03-18T10:53:41.320Z,21.10
2018-03-18T10:56:09.081Z,21.00
2018-03-18T10:58:36.873Z,21.00
2018-03-18T11:01:10.387Z,21.00
2018-03-18T11:03:40.820Z,21.00
2018-03-18T11:06:08.603Z,21.20
2018-03-18T11:08:36.371Z,21.30
2018-03-18T11:11:04.133Z,21.20
2018-03-18T11:13:31.857Z,21.20
2018-03-18T11:15:59.624Z,21.20
2018-03-18T11:18:27.496Z,21.40
2018-03-18T11:20:56.133Z,21.60
2018-03-18T11:23:23.853Z,22.00
2018-03-18T11:25:51.660Z,21.70
2018-03-18T11:28:19.406Z,21.40
2018-03-18T11:30:47.193Z,21.30
2018-03-18T11:33:15.000Z,21.40
2018-03-18T11:35:42.735Z,21.50
2018-03-18T11:38:10.508Z,21.80
2018-03-18T11:40:38.267Z,21.80
2018-03-18T11:43:05.977Z,22.10
2018-03-18T11:45:33.802Z,22.10
2018-03-18T11:48:01.586Z,22.20
2018-03-18T11:50:29.413Z,22.20
2018-03-18T11:52:57.137Z,22.20
2018-03-18T11:55:24.895Z,22.20
2018-03-18T11:57:57.204Z,22.20
2018-03-18T12:00:24.977Z,22.20
2018-03-18T12:02:52.772Z,22.20
2018-03-18T12:05:20.505Z,22.20
2018-03-18T12:07:48.303Z,22.20
2018-03-18T12:10:16.165Z,22.20
2018-03-18T12:12:46.478Z,22.10
2018-03-18T12:15:14.288Z,22.10
2018-03-18T12:17:42.047Z,22.00
2018-03-18T12:20:09.894Z,22.00
2018-03-18T12:22:37.654Z,22.00
2018-03-18T12:25:05.383Z,22.00
2018-03-18T12:27:33.100Z,22.00
2018-03-18T12:30:00.833Z,22.00
2018-03-18T12:32:29.368Z,22.10
2018-03-18T12:34:57.091Z,22.10
2018-03-18T12:37:24.911Z,22.10
2018-03-18T12:40:05.797Z,22.20
2018-03-18T12:42:45.466Z,22.20
2018-03-18T12:45:13.204Z,22.30
2018-03-18T12:47:40.917Z,22.30
2018-03-18T12:50:08.704Z,22.40
2018-03-18T12:52:36.472Z,22.40
2018-03-18T12:55:04.261Z,22.40
2018-03-18T12:57:32.043Z,22.50
2018-03-18T12:59:59.845Z,22.50
2018-03-18T13:02:28.392Z,22.50
2018-03-18T13:04:56.141Z,22.40
2018-03-18T13:07:24.000Z,22.50
2018-03-18T13:09:51.778Z,22.40
2018-03-18T13:12:19.567Z,22.40
2018-03-18T13:14:47.353Z,22.40
2018-03-18T13:17:15.850Z,22.50
2018-03-18T13:19:43.649Z,22.40
2018-03-18T13:22:11.436Z,22.40
2018-03-18T13:24:39.803Z,22.40
2018-03-18T13:27:07.720Z,22.40
2018-03-18T13:29:36.326Z,22.40
2018-03-18T13:32:04.164Z,22.40
2018-03-18T13:34:32.807Z,22.30
2018-03-18T13:37:00.585Z,22.20
2018-03-18T13:39:30.859Z,22.40
2018-03-18T13:42:00.221Z,22.30
2018-03-18T13:44:28.255Z,22.30
2018-03-18T13:46:56.007Z,22.30
2018-03-18T13:49:24.522Z,22.30
2018-03-18T13:51:52.334Z,22.30
2018-03-18T13:54:20.226Z,22.30
2018-03-18T13:56:48.042Z,22.30
2018-03-18T13:59:15.817Z,22.20
2018-03-18T14:01:43.563Z,22.20
2018-03-18T14:04:11.457Z,22.20
2018-03-18T14:06:39.546Z,22.20
2018-03-18T14:09:07.678Z,22.30
2018-03-18T14:11:35.446Z,22.30
2018-03-18T14:14:03.635Z,22.20
2018-03-18T14:16:32.566Z,22.30
2018-03-18T14:19:00.588Z,22.30
2018-03-18T14:21:32.095Z,22.30
2018-03-18T14:24:00.695Z,22.30
2018-03-18T14:26:36.497Z,22.30
2018-03-18T14:29:07.399Z,22.30
2018-03-18T14:31:35.636Z,22.40
2018-03-18T14:34:04.313Z,22.40
2018-03-18T14:36:32.401Z,22.40
2018-03-18T14:39:01.060Z,22.50
2018-03-18T14:41:29.719Z,22.40
2018-03-18T14:43:57.602Z,22.40
2018-03-18T14:46:27.178Z,22.40
2018-03-18T14:48:55.160Z,22.40
2018-03-18T14:51:24.358Z,22.50
2018-03-18T14:53:52.162Z,22.40
2018-03-18T14:56:20.095Z,22.50
2018-03-18T14:58:48.731Z,22.40
2018-03-18T15:01:18.391Z,22.40
2018-03-18T15:03:46.706Z,22.50
2018-03-18T15:06:15.597Z,22.40
2018-03-18T15:08:43.369Z,22.40
2018-03-18T15:11:11.266Z,22.50
2018-03-18T15:13:39.360Z,22.50
2018-03-18T15:16:07.183Z,22.50
2018-03-18T15:18:34.933Z,22.50
2018-03-18T15:21:03.169Z,22.50
2018-03-18T15:23:31.379Z,22.60
2018-03-18T15:25:59.364Z,22.50
2018-03-18T15:28:27.216Z,22.40
2018-03-18T15:30:55.256Z,22.40
2018-03-18T15:33:23.154Z,22.50
2018-03-18T15:35:50.991Z,22.40
2018-03-18T15:38:19.317Z,22.40
2018-03-18T15:40:47.137Z,22.50
2018-03-18T15:43:15.133Z,22.50
2018-03-18T15:45:43.280Z,22.50
2018-03-18T15:48:11.158Z,22.20
2018-03-18T15:50:38.939Z,22.30
2018-03-18T15:53:06.944Z,22.30
2018-03-18T15:55:37.514Z,22.20
2018-03-18T15:58:05.319Z,22.10
2018-03-18T16:00:34.248Z,22.30
2018-03-18T16:03:02.027Z,22.20
2018-03-18T16:05:29.846Z,22.40
2018-03-18T16:07:57.684Z,22.40
2018-03-18T16:10:25.448Z,22.50
2018-03-18T16:12:53.240Z,22.50
2018-03-18T16:15:21.059Z,22.50
2018-03-18T16:17:50.490Z,22.60
2018-03-18T16:20:18.358Z,22.60
2018-03-18T16:22:46.230Z,22.60
2018-03-18T16:25:14.246Z,22.50
2018-03-18T16:27:42.164Z,22.50
2018-03-18T16:30:21.811Z,22.50
2018-03-18T16:32:52.226Z,22.50
2018-03-18T16:35:20.045Z,22.50
2018-03-18T16:37:52.849Z,22.50
2018-03-18T16:40:20.775Z,22.50
2018-03-18T16:42:48.656Z,22.50
2018-03-18T16:45:16.378Z,22.40
2018-03-18T16:47:44.940Z,22.40
2018-03-18T16:50:12.708Z,22.30
2018-03-18T16:52:40.531Z,22.40
2018-03-18T16:55:09.836Z,22.40
2018-03-18T16:57:38.727Z,22.40
2018-03-18T17:00:06.472Z,22.30
2018-03-18T17:02:38.630Z,22.30
2018-03-18T17:05:07.692Z,22.30
2018-03-18T17:07:42.963Z,22.30
2018-03-18T17:10:10.965Z,22.30
2018-03-18T17:12:41.525Z,22.30
2018-03-18T17:15:12.726Z,22.40
2018-03-18T17:17:41.856Z,22.30
2018-03-18T17:20:16.517Z,22.30
2018-03-18T17:22:46.054Z,22.30
2018-03-18T17:25:14.429Z,22.30
2018-03-18T17:27:43.745Z,22.30
2018-03-18T17:30:12.978Z,22.30
2018-03-18T17:32:41.942Z,22.30
2018-03-18T17:35:11.277Z,22.40
2018-03-18T17:37:41.024Z,22.40
2018-03-18T17:40:10.304Z,22.40
2018-03-18T17:42:38.632Z,22.40
2018-03-18T17:45:18.360Z,22.40
2018-03-18T17:51:08.334Z,22.30
2018-03-18T18:07:05.076Z,22.60
2018-03-18T18:09:36.209Z,22.40
2018-03-18T18:12:08.968Z,22.30
2018-03-18T18:14:41.250Z,22.30
2018-03-18T18:17:09.786Z,22.30
2018-03-18T18:19:37.662Z,22.30
2018-03-18T18:22:07.660Z,22.60
2018-03-18T18:24:36.129Z,22.50
2018-03-18T18:27:04.470Z,22.70
2018-03-18T18:29:32.618Z,22.70
2018-03-18T18:32:01.230Z,22.70
2018-03-18T18:34:29.229Z,22.70
2018-03-18T18:36:58.988Z,22.90
2018-03-18T18:39:27.531Z,23.00
2018-03-18T18:42:01.850Z,23.00
2018-03-18T18:44:30.811Z,23.20
2018-03-18T18:46:58.671Z,23.10
2018-03-18T18:49:26.738Z,23.20
2018-03-18T18:51:54.748Z,23.40
2018-03-18T18:54:23.162Z,23.30
2018-03-18T18:56:50.980Z,23.40
2018-03-18T18:59:18.715Z,23.40
2018-03-18T19:01:46.568Z,23.20
2018-03-18T19:04:15.162Z,23.40
2018-03-18T19:06:42.978Z,23.40
2018-03-18T19:09:10.818Z,23.50
2018-03-18T19:11:39.381Z,23.60
2018-03-18T19:14:07.325Z,23.50
2018-03-18T19:16:36.853Z,23.60
2018-03-18T19:19:05.737Z,23.60
2018-03-18T19:21:35.633Z,23.50
2018-03-18T19:24:07.106Z,23.60
2018-03-18T19:26:38.314Z,23.60
2018-03-18T19:29:07.214Z,23.50
2018-03-18T19:31:37.365Z,23.60
2018-03-18T19:34:12.709Z,23.50
2018-03-18T19:36:46.180Z,23.40
2018-03-18T19:39:17.738Z,23.50
2018-03-18T19:41:49.592Z,23.50
2018-03-18T19:44:26.898Z,23.50
2018-03-18T19:47:01.576Z,23.50
2018-03-18T19:49:37.293Z,23.50
2018-03-18T19:52:13.218Z,23.50
2018-03-18T19:54:49.042Z,23.40
2018-03-18T19:57:21.218Z,23.40
2018-03-18T19:59:57.132Z,23.30
2018-03-18T20:02:29.612Z,23.30
2018-03-18T20:05:06.688Z,23.20
2018-03-18T20:07:43.470Z,23.30
2018-03-18T20:10:20.828Z,23.30
2018-03-18T20:12:57.446Z,23.30
2018-03-18T20:15:30.555Z,23.20
2018-03-18T20:18:03.599Z,23.10
2018-03-18T20:20:31.625Z,23.10
2018-03-18T20:23:04.608Z,22.90
2018-03-18T20:25:37.328Z,22.90
2018-03-18T20:28:06.556Z,22.70
2018-03-18T20:30:39.631Z,22.70
2018-03-18T20:33:13.048Z,22.80
2018-03-18T20:35:45.662Z,22.70
2018-03-18T20:38:17.327Z,22.80
2018-03-18T20:40:52.808Z,22.70
2018-03-18T20:43:27.269Z,22.50
2018-03-18T20:45:56.793Z,22.30
2018-03-18T20:48:32.796Z,22.40
2018-03-18T20:51:06.644Z,22.40
2018-03-18T20:53:34.573Z,22.40
2018-03-18T20:56:02.828Z,22.40
2018-03-18T20:58:36.565Z,22.10
2018-03-18T21:01:10.400Z,22.30
2018-03-18T21:03:44.869Z,22.30
2018-03-18T21:06:16.731Z,22.50
2018-03-18T21:08:45.314Z,22.40
2018-03-18T21:11:16.677Z,22.30
2018-03-18T21:13:48.138Z,22.50
2018-03-18T21:16:19.764Z,22.40
2018-03-18T21:18:52.480Z,22.50
2018-03-18T21:21:23.213Z,22.60
2018-03-18T21:23:51.800Z,22.60
2018-03-18T21:26:26.526Z,22.60
2018-03-18T21:28:56.799Z,22.70
2018-03-18T21:31:27.127Z,22.70
2018-03-18T21:33:56.991Z,22.70
2018-03-18T21:36:26.328Z,22.70
2018-03-18T21:38:54.564Z,22.60
2018-03-18T21:41:22.998Z,22.70
2018-03-18T21:43:50.735Z,22.60
2018-03-18T21:46:18.562Z,22.60
2018-03-18T21:48:46.383Z,22.70
2018-03-18T21:51:14.164Z,22.70
2018-03-18T21:53:41.898Z,22.50
2018-03-18T21:56:09.748Z,22.70
2018-03-18T21:58:37.551Z,22.50
2018-03-18T22:01:05.318Z,22.50
2018-03-18T22:03:33.055Z,22.40
2018-03-18T22:06:00.830Z,22.50
2018-03-18T22:08:29.356Z,22.50
2018-03-18T22:10:57.129Z,22.40
2018-03-18T22:13:24.848Z,22.50
2018-03-18T22:15:52.630Z,22.50
2018-03-18T22:18:20.379Z,22.50
2018-03-18T22:20:48.144Z,22.50
2018-03-18T22:23:15.837Z,22.50
2018-03-18T22:25:43.593Z,22.60
2018-03-18T22:28:11.362Z,22.40
2018-03-18T22:30:39.891Z,22.20
2018-03-18T22:33:07.640Z,22.20
2018-03-18T22:35:35.403Z,22.00
2018-03-18T22:38:03.266Z,21.90
2018-03-18T22:40:31.056Z,21.90
2018-03-18T22:42:58.801Z,21.80
2018-03-18T22:45:26.568Z,21.70
2018-03-18T22:47:54.354Z,21.80
2018-03-18T22:50:22.144Z,21.80
2018-03-18T22:52:49.887Z,21.80
2018-03-18T22:55:17.777Z,21.60
2018-03-18T22:57:45.521Z,21.30
2018-03-18T23:00:18.162Z,21.20
2018-03-18T23:02:46.677Z,21.00
2018-03-18T23:05:14.402Z,21.00
2018-03-18T23:07:42.295Z,21.10
2018-03-18T23:10:10.027Z,21.20
2018-03-18T23:12:37.788Z,21.30
2018-03-18T23:15:05.597Z,21.20
2018-03-18T23:17:33.364Z,21.00
2018-03-18T23:20:01.152Z,20.70
2018-03-18T23:22:28.950Z,20.70
2018-03-18T23:24:56.847Z,20.50
2018-03-18T23:27:24.887Z,20.50
2018-03-18T23:29:52.653Z,20.90
2018-03-18T23:32:20.373Z,20.60
2018-03-18T23:34:48.125Z,20.60
2018-03-18T23:37:16.666Z,21.00
2018-03-18T23:39:44.439Z,21.00
2018-03-18T23:42:12.210Z,20.90
2018-03-18T23:44:39.913Z,20.40
2018-03-18T23:47:07.673Z,20.10
2018-03-18T23:49:35.453Z,19.90
2018-03-18T23:52:03.266Z,19.80
2018-03-18T23:54:31.115Z,19.70
2018-03-18T23:56:58.897Z,19.50
2018-03-18T23:59:26.644Z,19.40
